Time;durP1;ratioP1;P1;durP2;ratioP2;P2;SDS_P1;SDS_P2;PMS_P1;PMS_P2;Temp;Humidity;BMP_temperature;BMP_pressure;BME280_temperature;BME280_humidity;BME280_pressure;Samples;Min_cycle;Max_cycle;Signal;HPM_P1;HPM_P2
2021/12/01 00:01:08;;;;;;;12.32;2.83;;;22.40;67.80;;;;;;5036734;28;20112;-73
2021/12/01 00:03:35;;;;;;;11.02;3.00;;;22.40;67.80;;;;;;5037498;28;20048;-73
2021/12/01 00:06:02;;;;;;;13.88;3.20;;;22.40;67.90;;;;;;5038805;28;20083;-73
2021/12/01 00:08:29;;;;;;;11.68;2.70;;;22.40;67.90;;;;;;5037261;28;20432;-73
2021/12/01 00:10:56;;;;;;;10.23;2.97;;;22.40;68.20;;;;;;5038080;28;20469;-73
2021/12/01 00:13:23;;;;;;;7.97;2.67;;;22.40;68.10;;;;;;5037121;28;20403;-73
2021/12/01 00:15:52;;;;;;;10.10;2.47;;;22.40;68.10;;;;;;5030719;28;20099;-72
2021/12/01 00:18:18;;;;;;;10.68;2.53;;;22.30;68.10;;;;;;5037486;28;20043;-73
2021/12/01 00:20:46;;;;;;;7.63;2.28;;;22.30;68.20;;;;;;5028282;28;20063;-73
2021/12/01 00:23:13;;;;;;;6.90;2.13;;;22.30;68.90;;;;;;5037567;28;20033;-73
2021/12/01 00:25:42;;;;;;;9.63;2.40;;;22.30;68.90;;;;;;5034569;28;20017;-72
2021/12/01 00:28:09;;;;;;;7.25;2.40;;;22.30;68.30;;;;;;5037621;28;20431;-73
2021/12/01 00:30:35;;;;;;;10.25;2.80;;;22.30;68.30;;;;;;5034918;28;20017;-74
2021/12/01 00:33:02;;;;;;;7.47;3.22;;;22.30;68.20;;;;;;5039209;28;20503;-73
2021/12/01 00:35:29;;;;;;;12.02;4.07;;;22.30;68.10;;;;;;5038360;28;20108;-73
2021/12/01 00:37:56;;;;;;;6.35;2.05;;;22.30;68.10;;;;;;5037038;28;20033;-73
2021/12/01 00:40:25;;;;;;;6.13;2.13;;;22.20;67.90;;;;;;5038667;28;20108;-74
2021/12/01 00:42:52;;;;;;;12.50;2.95;;;22.20;67.90;;;;;;5037047;28;20108;-73
2021/12/01 00:45:22;;;;;;;5.75;2.45;;;22.20;67.80;;;;;;5040803;28;20049;-74
2021/12/01 00:47:50;;;;;;;9.43;3.80;;;22.20;67.70;;;;;;5036221;28;20412;-74
2021/12/01 00:50:30;;;;;;;9.65;3.03;;;22.20;67.80;;;;;;5037257;28;20122;-74
2021/12/01 00:53:01;;;;;;;13.77;4.15;;;22.20;67.80;;;;;;5039683;28;20013;-74
2021/12/01 00:55:27;;;;;;;10.48;3.30;;;22.10;67.90;;;;;;5035889;28;20419;-74
2021/12/01 00:57:54;;;;;;;12.77;3.22;;;22.10;68.00;;;;;;5037533;28;20116;-74
2021/12/01 01:00:23;;;;;;;7.82;2.92;;;22.10;67.90;;;;;;5039637;28;20546;-73
2021/12/01 01:02:50;;;;;;;11.70;3.75;;;22.10;68.00;;;;;;5035845;28;20028;-73
2021/12/01 01:05:17;;;;;;;14.23;3.75;;;22.10;68.00;;;;;;5036672;28;20033;-73
2021/12/01 01:07:44;;;;;;;9.65;3.08;;;22.10;68.00;;;;;;5040117;28;20533;-73
2021/12/01 01:18:23;;;;;;;7.63;1.98;;;22.00;67.50;;;;;;5039870;28;20052;-73
2021/12/01 01:20:49;;;;;;;10.18;3.28;;;22.00;67.40;;;;;;5038509;28;20018;-73
2021/12/01 01:23:16;;;;;;;6.75;2.58;;;22.00;67.40;;;;;;5041267;28;20128;-74
2021/12/01 01:25:42;;;;;;;5.00;1.65;;;22.00;67.40;;;;;;5039130;28;21458;-74
2021/12/01 01:28:10;;;;;;;12.48;2.80;;;22.00;67.40;;;;;;5040146;28;20017;-74
2021/12/01 01:30:36;;;;;;;14.25;3.53;;;22.00;67.30;;;;;;5038320;28;20068;-73
2021/12/01 01:33:03;;;;;;;12.73;3.55;;;22.00;67.30;;;;;;5043651;28;20025;-74
2021/12/01 01:35:30;;;;;;;12.73;3.65;;;22.00;67.30;;;;;;5041110;28;20014;-73
2021/12/01 01:37:57;;;;;;;6.72;2.42;;;21.90;67.10;;;;;;5040803;28;20092;-73
2021/12/01 01:40:24;;;;;;;8.02;2.47;;;21.90;67.80;;;;;;5041592;28;20100;-73
2021/12/01 01:42:50;;;;;;;5.07;2.20;;;21.90;67.10;;;;;;5040419;28;20017;-74
2021/12/01 01:45:17;;;;;;;9.88;2.33;;;21.90;67.10;;;;;;5038518;28;20056;-73
2021/12/01 01:48:04;;;;;;;8.27;2.22;;;21.90;67.10;;;;;;5041068;28;20032;-73
2021/12/01 01:50:37;;;;;;;6.45;2.20;;;21.90;67.10;;;;;;5039452;28;20040;-74
2021/12/01 01:53:24;;;;;;;9.40;1.88;;;21.80;67.10;;;;;;5041425;28;20052;-74
2021/12/01 01:55:53;;;;;;;7.50;2.17;;;21.80;67.10;;;;;;5039698;28;20483;-74
2021/12/01 01:58:21;;;;;;;10.10;3.53;;;21.80;67.00;;;;;;5041524;28;20514;-74
2021/12/01 02:01:04;;;;;;;7.88;2.90;;;21.80;67.10;;;;;;5039760;28;20014;-74
2021/12/01 02:03:31;;;;;;;7.88;2.38;;;21.80;67.10;;;;;;5039020;28;20048;-73
2021/12/01 02:05:57;;;;;;;6.30;2.35;;;21.80;67.10;;;;;;5040131;28;20555;-74
2021/12/01 02:08:31;;;;;;;10.50;2.78;;;21.80;67.70;;;;;;5041241;28;20418;-74
2021/12/01 02:10:59;;;;;;;14.40;2.60;;;21.80;67.10;;;;;;5041657;28;20025;-74
2021/12/01 02:13:27;;;;;;;15.77;3.55;;;21.80;67.10;;;;;;5039207;28;20540;-74
2021/12/01 02:15:54;;;;;;;8.68;3.67;;;21.70;67.00;;;;;;5041575;28;20013;-74
2021/12/01 02:18:21;;;;;;;10.50;3.55;;;21.70;67.00;;;;;;5029774;28;20273;-74
2021/12/01 02:21:13;;;;;;;20.40;4.10;;;21.70;67.00;;;;;;5040297;28;20017;-75
2021/12/01 02:23:55;;;;;;;13.23;4.70;;;21.70;67.60;;;;;;5030849;28;20044;-74
2021/12/01 02:26:23;;;;;;;14.85;4.30;;;21.70;66.90;;;;;;5017252;28;20053;-73
2021/12/01 02:29:06;;;;;;;12.30;3.70;;;21.70;66.90;;;;;;5042068;28;20064;-74
2021/12/01 02:31:36;;;;;;;11.73;4.40;;;21.70;66.90;;;;;;5023316;28;20075;-75
2021/12/01 02:34:05;;;;;;;13.40;4.13;;;21.70;66.90;;;;;;5039488;28;20013;-74
2021/12/01 02:36:32;;;;;;;10.70;3.80;;;21.70;66.90;;;;;;5039404;28;20384;-74
2021/12/01 02:39:16;;;;;;;18.65;4.82;;;21.60;66.80;;;;;;5037556;28;20365;-74
2021/12/01 02:41:45;;;;;;;16.48;4.28;;;21.60;66.90;;;;;;5021486;28;20026;-74
2021/12/01 02:44:16;;;;;;;21.98;4.85;;;21.60;66.90;;;;;;5039062;28;20029;-75
2021/12/01 02:46:43;;;;;;;16.13;4.20;;;21.60;67.00;;;;;;5037956;28;20037;-75
2021/12/01 02:49:20;;;;;;;12.70;3.42;;;21.60;67.00;;;;;;5039820;28;20018;-75
2021/12/01 02:51:48;;;;;;;17.25;4.07;;;21.50;66.90;;;;;;5037273;28;20036;-72
2021/12/01 02:54:15;;;;;;;11.85;4.15;;;21.50;67.00;;;;;;5041629;28;20029;-74
2021/12/01 02:56:47;;;;;;;14.43;4.00;;;21.50;67.00;;;;;;5039639;28;20123;-74
2021/12/01 02:59:16;;;;;;;10.73;4.40;;;21.50;67.00;;;;;;5037937;28;20033;-75
2021/12/01 03:01:43;;;;;;;16.98;4.57;;;21.50;67.10;;;;;;5039566;28;20434;-75
2021/12/01 03:04:09;;;;;;;11.73;4.72;;;21.50;67.20;;;;;;5039974;28;20017;-72
2021/12/01 03:06:37;;;;;;;10.60;4.03;;;21.40;67.20;;;;;;5037235;28;20024;-74
2021/12/01 03:09:07;;;;;;;14.60;4.88;;;21.40;67.30;;;;;;5036792;28;20719;-74
2021/12/01 03:11:36;;;;;;;12.40;4.72;;;21.40;67.30;;;;;;5041903;28;20388;-73
2021/12/01 03:14:08;;;;;;;9.93;4.20;;;21.40;67.30;;;;;;5041386;28;20091;-73
2021/12/01 03:16:36;;;;;;;15.43;4.57;;;21.40;67.40;;;;;;5037786;28;20400;-74
2021/12/01 03:19:02;;;;;;;17.00;4.30;;;21.40;67.40;;;;;;5038942;28;20613;-73
2021/12/01 03:21:29;;;;;;;14.57;4.10;;;21.40;67.50;;;;;;5040137;28;20108;-75
2021/12/01 03:23:55;;;;;;;16.08;7.85;;;21.40;67.50;;;;;;5038829;28;20022;-74
2021/12/01 03:26:22;;;;;;;28.17;16.00;;;21.40;67.50;;;;;;5038514;28;20387;-72
2021/12/01 03:28:48;;;;;;;32.97;15.40;;;21.40;67.50;;;;;;5039147;28;20017;-74
2021/12/01 03:31:15;;;;;;;29.27;12.30;;;21.40;67.70;;;;;;5035533;28;20108;-74
2021/12/01 03:33:41;;;;;;;22.85;10.20;;;21.30;67.80;;;;;;5033884;28;20033;-71
2021/12/01 03:36:08;;;;;;;13.35;6.25;;;21.30;67.90;;;;;;5036223;28;20110;-73
2021/12/01 03:38:35;;;;;;;21.60;6.03;;;21.30;67.80;;;;;;5037183;28;20733;-72
2021/12/01 03:41:01;;;;;;;13.88;5.05;;;21.30;67.80;;;;;;5038239;28;20029;-75
2021/12/01 03:43:28;;;;;;;13.43;4.35;;;21.30;67.70;;;;;;5036691;28;20083;-72
2021/12/01 03:45:55;;;;;;;12.45;4.28;;;21.30;67.60;;;;;;5038957;28;20512;-73
2021/12/01 03:48:22;;;;;;;16.77;4.38;;;21.30;67.70;;;;;;5036586;28;20037;-74
2021/12/01 03:50:49;;;;;;;11.93;4.10;;;21.30;67.80;;;;;;5033353;28;20113;-73
2021/12/01 03:53:18;;;;;;;13.60;4.10;;;21.30;67.80;;;;;;5037564;28;20484;-72
2021/12/01 03:55:44;;;;;;;10.75;4.22;;;21.20;67.70;;;;;;5034035;28;20044;-70
2021/12/01 03:58:11;;;;;;;20.20;5.65;;;21.20;67.70;;;;;;5038501;28;20039;-74
2021/12/01 04:00:38;;;;;;;13.90;4.13;;;21.20;67.70;;;;;;5037154;28;20017;-73
2021/12/01 04:03:05;;;;;;;15.07;6.32;;;21.20;67.90;;;;;;5034801;28;20049;-74
2021/12/01 04:05:32;;;;;;;16.02;7.65;;;21.20;68.00;;;;;;5033308;28;20018;-72
2021/12/01 04:08:01;;;;;;;18.80;7.93;;;21.30;68.20;;;;;;5039525;28;20025;-73
2021/12/01 04:10:28;;;;;;;12.60;6.38;;;21.20;68.30;;;;;;5036580;28;20034;-72
2021/12/01 04:12:54;;;;;;;15.00;5.65;;;21.20;68.40;;;;;;5039422;28;20025;-80
2021/12/01 04:15:21;;;;;;;13.88;6.40;;;21.20;68.50;;;;;;5036229;28;20044;-74
2021/12/01 04:17:49;;;;;;;19.58;5.88;;;21.20;68.60;;;;;;5040204;28;20039;-77
2021/12/01 04:20:16;;;;;;;12.55;4.55;;;21.20;68.60;;;;;;5044557;28;20033;-78
2021/12/01 04:22:45;;;;;;;15.98;5.40;;;21.20;68.70;;;;;;5041564;28;20021;-79
2021/12/01 04:25:12;;;;;;;16.88;5.53;;;21.20;68.80;;;;;;5040143;28;20578;-78
2021/12/01 04:27:39;;;;;;;12.57;6.32;;;21.20;68.90;;;;;;5041892;28;20021;-77
2021/12/01 04:30:10;;;;;;;16.15;7.95;;;21.20;69.00;;;;;;5043350;28;20468;-75
2021/12/01 04:32:37;;;;;;;24.48;8.52;;;21.20;69.20;;;;;;5043905;28;20018;-74
2021/12/01 04:35:05;;;;;;;22.92;10.27;;;21.20;69.30;;;;;;5036423;28;20021;-76
2021/12/01 04:37:31;;;;;;;22.08;10.25;;;21.20;69.50;;;;;;5035596;28;20129;-73
2021/12/01 04:39:58;;;;;;;18.60;7.53;;;21.20;69.50;;;;;;5038563;28;20024;-79
2021/12/01 04:42:24;;;;;;;16.05;6.75;;;21.30;69.50;;;;;;5038453;28;20021;-83
2021/12/01 04:44:51;;;;;;;16.88;7.55;;;21.20;69.30;;;;;;5040711;28;20056;-81
2021/12/01 04:47:26;;;;;;;25.30;7.68;;;21.20;69.20;;;;;;5044194;28;20025;-76
2021/12/01 04:49:53;;;;;;;15.20;5.60;;;21.30;69.30;;;;;;5039513;28;20026;-82
2021/12/01 04:52:19;;;;;;;21.85;6.18;;;21.30;69.30;;;;;;5039567;28;20079;-88
2021/12/01 04:54:46;;;;;;;13.82;5.35;;;21.30;69.30;;;;;;5048631;28;20029;-85
2021/12/01 04:57:12;;;;;;;12.43;4.68;;;21.30;69.30;;;;;;5048110;28;20025;-88
2021/12/01 04:59:39;;;;;;;16.42;5.18;;;21.30;69.30;;;;;;5044777;28;20029;-86
2021/12/01 05:02:05;;;;;;;19.90;5.00;;;21.30;69.50;;;;;;5047191;28;20029;-87
2021/12/01 05:04:33;;;;;;;19.35;3.95;;;21.30;69.60;;;;;;5044534;28;20025;-89
2021/12/01 05:06:59;;;;;;;15.85;4.35;;;21.30;70.40;;;;;;5043121;28;20028;-87
2021/12/01 05:09:26;;;;;;;12.55;5.13;;;21.30;69.70;;;;;;5041676;28;20791;-88
2021/12/01 05:11:52;;;;;;;13.90;3.47;;;21.30;69.60;;;;;;5044670;28;20381;-89
2021/12/01 05:14:24;;;;;;;9.60;3.17;;;21.30;69.50;;;;;;5043382;28;20096;-88
2021/12/01 05:16:50;;;;;;;18.00;5.05;;;21.30;69.50;;;;;;5044633;28;20559;-85
2021/12/01 05:19:17;;;;;;;10.63;3.85;;;21.40;69.70;;;;;;5040371;28;20079;-86
2021/12/01 05:21:43;;;;;;;14.70;5.32;;;21.40;70.00;;;;;;5046141;28;20020;-88
2021/12/01 05:24:10;;;;;;;18.20;5.55;;;21.40;70.40;;;;;;5041615;28;20396;-86
2021/12/01 05:26:37;;;;;;;21.77;6.47;;;21.40;70.70;;;;;;5046150;28;20060;-88
2021/12/01 05:29:04;;;;;;;16.83;5.78;;;21.40;71.00;;;;;;5040778;28;20033;-89
2021/12/01 05:31:31;;;;;;;16.42;6.00;;;21.40;71.00;;;;;;5037866;28;20021;-86
2021/12/01 05:33:58;;;;;;;16.42;4.90;;;21.40;71.10;;;;;;5042043;28;20025;-89
2021/12/01 05:36:24;;;;;;;16.27;4.40;;;21.50;71.20;;;;;;5045360;28;20017;-88
2021/12/01 05:38:51;;;;;;;12.32;4.45;;;21.50;71.20;;;;;;5047043;28;20052;-87
2021/12/01 05:41:18;;;;;;;14.10;5.22;;;21.50;71.20;;;;;;5042812;28;20093;-87
2021/12/01 05:43:45;;;;;;;16.73;4.95;;;21.50;71.10;;;;;;5047055;28;20025;-84
2021/12/01 05:46:12;;;;;;;18.20;4.57;;;21.60;71.10;;;;;;5048518;28;20124;-89
2021/12/01 05:48:38;;;;;;;15.27;4.55;;;21.60;71.00;;;;;;5043216;28;20107;-88
2021/12/01 05:51:05;;;;;;;14.10;5.63;;;21.60;70.90;;;;;;5049816;28;20035;-86
2021/12/01 05:53:32;;;;;;;16.70;5.88;;;21.60;70.90;;;;;;5039114;28;20068;-88
2021/12/01 05:55:58;;;;;;;13.88;4.22;;;21.70;70.80;;;;;;5041976;28;20113;-81
2021/12/01 05:58:25;;;;;;;14.57;4.13;;;21.70;70.70;;;;;;5048945;28;20060;-87
2021/12/01 06:00:52;;;;;;;14.13;4.53;;;21.70;70.50;;;;;;5045317;28;20434;-88
2021/12/01 06:03:19;;;;;;;11.00;4.28;;;21.70;70.30;;;;;;5029817;28;20431;-88
2021/12/01 06:05:45;;;;;;;11.52;2.65;;;21.80;70.20;;;;;;5047354;28;20142;-82
2021/12/01 06:08:12;;;;;;;8.63;3.13;;;21.80;70.00;;;;;;5046023;28;20025;-87
2021/12/01 06:10:42;;;;;;;10.10;3.75;;;21.80;69.80;;;;;;5044805;28;20546;-88
2021/12/01 06:13:12;;;;;;;12.63;2.88;;;21.80;69.50;;;;;;5042899;28;20100;-87
2021/12/01 06:15:38;;;;;;;9.00;3.38;;;21.80;69.20;;;;;;5042156;28;20021;-87
2021/12/01 06:18:05;;;;;;;12.02;3.13;;;21.90;69.00;;;;;;5047126;28;20691;-86
2021/12/01 06:20:31;;;;;;;11.27;2.38;;;21.90;68.80;;;;;;5044058;28;20048;-86
2021/12/01 06:22:58;;;;;;;9.05;2.35;;;22.00;68.70;;;;;;5044411;28;20051;-87
2021/12/01 06:25:24;;;;;;;9.95;2.97;;;22.00;68.50;;;;;;5042993;28;20022;-85
2021/12/01 06:27:51;;;;;;;9.75;2.80;;;22.00;68.20;;;;;;5039555;28;20045;-88
2021/12/01 06:30:17;;;;;;;12.85;3.00;;;22.10;68.20;;;;;;5039731;28;20036;-84
2021/12/01 06:32:44;;;;;;;12.18;2.88;;;22.10;68.10;;;;;;5036882;28;20021;-86
2021/12/01 06:35:10;;;;;;;12.10;3.08;;;22.10;68.00;;;;;;5044307;28;20440;-86
2021/12/01 06:37:37;;;;;;;12.48;3.40;;;22.20;67.90;;;;;;5042491;28;20129;-86
2021/12/01 06:40:05;;;;;;;11.38;2.78;;;22.20;67.70;;;;;;5041377;28;20025;-85
2021/12/01 06:42:32;;;;;;;12.27;2.47;;;22.20;67.50;;;;;;5043052;28;20020;-87
2021/12/01 06:44:58;;;;;;;5.40;2.45;;;22.20;67.20;;;;;;5049298;28;20041;-84
2021/12/01 06:47:25;;;;;;;8.10;2.58;;;22.20;67.10;;;;;;5046971;28;20080;-85
2021/12/01 06:49:51;;;;;;;8.43;4.20;;;22.30;67.00;;;;;;5042876;28;20021;-82
2021/12/01 06:52:18;;;;;;;8.32;2.20;;;22.30;66.90;;;;;;5040024;28;20013;-76
2021/12/01 06:54:44;;;;;;;9.52;2.20;;;22.30;66.70;;;;;;5041331;28;20484;-85
2021/12/01 06:57:11;;;;;;;12.27;2.30;;;22.40;66.50;;;;;;5048033;28;20021;-84
2021/12/01 06:59:37;;;;;;;8.98;3.50;;;22.40;66.10;;;;;;5043846;28;20025;-85
2021/12/01 07:02:04;;;;;;;6.57;2.03;;;22.40;66.50;;;;;;5040183;28;20040;-85
2021/12/01 07:04:30;;;;;;;10.13;2.22;;;22.50;65.50;;;;;;5042742;28;20021;-80
2021/12/01 07:06:58;;;;;;;6.60;2.30;;;22.50;65.30;;;;;;5042153;28;20160;-84
2021/12/01 07:09:26;;;;;;;6.78;1.92;;;22.50;65.00;;;;;;5041571;28;20021;-84
2021/12/01 07:11:52;;;;;;;6.82;2.40;;;22.50;64.80;;;;;;5043467;28;20363;-84
2021/12/01 07:14:19;;;;;;;14.88;3.17;;;22.60;64.60;;;;;;5045134;28;20094;-84
2021/12/01 07:16:46;;;;;;;16.88;2.63;;;22.60;64.40;;;;;;5041187;28;20025;-84
2021/12/01 07:19:12;;;;;;;12.50;1.90;;;22.70;64.60;;;;;;5042826;28;20033;-82
2021/12/01 07:21:39;;;;;;;5.00;1.88;;;22.70;64.50;;;;;;5045071;28;20013;-79
2021/12/01 07:24:06;;;;;;;4.68;1.80;;;22.70;64.30;;;;;;5042246;28;20013;-79
2021/12/01 07:26:33;;;;;;;10.05;2.10;;;22.80;64.30;;;;;;5041301;28;20032;-72
2021/12/01 07:29:00;;;;;;;11.05;2.80;;;22.80;63.90;;;;;;5043748;28;20021;-73
2021/12/01 07:31:26;;;;;;;10.20;2.55;;;22.90;63.70;;;;;;5038465;28;20036;-80
2021/12/01 07:33:53;;;;;;;5.05;2.15;;;22.90;63.50;;;;;;5042084;28;20030;-75
2021/12/01 07:36:19;;;;;;;4.50;2.03;;;22.90;63.40;;;;;;5036897;28;20014;-76
2021/12/01 07:38:46;;;;;;;7.80;1.90;;;23.00;63.50;;;;;;5045715;28;20449;-73
2021/12/01 07:41:12;;;;;;;8.45;1.80;;;23.00;63.30;;;;;;5039782;28;20031;-74
2021/12/01 07:43:39;;;;;;;10.80;2.83;;;23.10;63.10;;;;;;5046344;28;20071;-81
2021/12/01 07:46:05;;;;;;;6.72;1.73;;;23.10;62.70;;;;;;5043422;28;20045;-74
2021/12/01 07:48:32;;;;;;;10.95;2.20;;;23.10;62.60;;;;;;5042545;28;20024;-75
2021/12/01 07:50:59;;;;;;;16.63;2.42;;;23.20;62.50;;;;;;5038999;28;20641;-72
2021/12/01 07:53:25;;;;;;;7.30;1.30;;;23.20;62.40;;;;;;5043033;28;20494;-71
2021/12/01 07:55:52;;;;;;;7.07;1.98;;;23.20;61.80;;;;;;5039740;28;20049;-73
2021/12/01 07:58:18;;;;;;;11.07;2.97;;;23.30;61.50;;;;;;5042875;28;20432;-77
2021/12/01 08:00:45;;;;;;;6.35;1.60;;;23.30;62.00;;;;;;5041182;28;20028;-75
2021/12/01 08:03:11;;;;;;;10.52;2.63;;;23.40;61.30;;;;;;5041242;28;20025;-77
2021/12/01 08:05:38;;;;;;;4.88;1.67;;;23.40;61.20;;;;;;5047783;28;20086;-74
2021/12/01 08:08:05;;;;;;;4.53;1.90;;;23.40;61.10;;;;;;5040998;28;20466;-72
2021/12/01 08:10:32;;;;;;;5.43;1.48;;;23.50;60.80;;;;;;5044013;28;20495;-75
2021/12/01 08:13:00;;;;;;;6.78;1.70;;;23.50;60.30;;;;;;5039966;28;20350;-72
2021/12/01 08:15:27;;;;;;;6.80;1.50;;;23.60;59.90;;;;;;5042062;28;20029;-72
2021/12/01 08:17:55;;;;;;;7.88;2.33;;;23.60;59.60;;;;;;5045084;28;21077;-77
2021/12/01 08:20:21;;;;;;;8.05;2.78;;;23.70;59.60;;;;;;5041347;28;20017;-76
2021/12/01 08:22:48;;;;;;;3.65;1.40;;;23.70;59.50;;;;;;5044609;28;20024;-77
2021/12/01 08:25:16;;;;;;;7.68;1.77;;;23.80;59.50;;;;;;5040192;28;20029;-78
2021/12/01 08:27:42;;;;;;;5.78;1.98;;;23.80;58.90;;;;;;5040016;28;20104;-77
2021/12/01 08:30:09;;;;;;;7.70;1.63;;;23.90;58.80;;;;;;5033399;28;20026;-80
2021/12/01 08:32:36;;;;;;;7.80;2.10;;;24.00;58.20;;;;;;5036398;28;20112;-78
2021/12/01 08:35:03;;;;;;;3.70;1.40;;;24.10;58.40;;;;;;5039436;28;20045;-75
2021/12/01 08:37:30;;;;;;;10.70;2.25;;;24.10;57.70;;;;;;5039289;28;20051;-76
2021/12/01 08:39:56;;;;;;;4.75;1.55;;;24.20;57.00;;;;;;5041093;28;20068;-79
2021/12/01 08:42:24;;;;;;;5.40;1.33;;;24.20;56.90;;;;;;5040789;28;20110;-79
2021/12/01 08:44:52;;;;;;;5.45;1.60;;;24.30;56.00;;;;;;5044560;28;20068;-78
2021/12/01 08:47:21;;;;;;;5.53;1.42;;;24.30;55.40;;;;;;5038215;28;20372;-80
2021/12/01 08:49:48;;;;;;;2.75;1.17;;;24.40;55.00;;;;;;5037825;28;20518;-75
2021/12/01 08:52:15;;;;;;;4.00;1.83;;;24.40;53.90;;;;;;5037439;28;20028;-75
2021/12/01 08:54:41;;;;;;;5.00;1.77;;;24.50;53.60;;;;;;5039320;28;20013;-79
2021/12/01 08:57:08;;;;;;;6.57;3.05;;;24.50;53.20;;;;;;5040875;28;20040;-74
2021/12/01 08:59:36;;;;;;;10.95;2.08;;;24.60;53.20;;;;;;5041354;28;20115;-74
2021/12/01 09:02:03;;;;;;;7.60;2.85;;;24.60;53.80;;;;;;5041406;28;20025;-78
2021/12/01 09:04:30;;;;;;;6.43;2.42;;;24.60;54.00;;;;;;5042767;28;20033;-74
2021/12/01 09:06:57;;;;;;;8.32;1.52;;;24.60;53.90;;;;;;5042125;28;20025;-74
2021/12/01 09:09:24;;;;;;;8.18;2.55;;;24.60;53.20;;;;;;5041611;28;20010;-72
2021/12/01 09:11:52;;;;;;;8.40;1.80;;;24.60;52.30;;;;;;5040887;28;20104;-74
2021/12/01 09:14:23;;;;;;;4.93;1.50;;;24.60;51.50;;;;;;5036301;28;20018;-73
2021/12/01 09:16:52;;;;;;;5.40;1.90;;;24.60;52.20;;;;;;5039938;28;20022;-76
2021/12/01 09:19:19;;;;;;;4.53;1.77;;;24.60;51.20;;;;;;5040079;28;20129;-75
2021/12/01 09:21:47;;;;;;;8.23;2.63;;;24.60;51.20;;;;;;5041436;28;20013;-75
2021/12/01 09:24:14;;;;;;;4.93;1.27;;;24.60;51.70;;;;;;5039641;28;20013;-73
2021/12/01 09:26:42;;;;;;;7.75;1.67;;;24.60;53.10;;;;;;5043909;28;20499;-75
2021/12/01 09:29:09;;;;;;;8.82;3.00;;;24.60;54.50;;;;;;5043586;28;20361;-72
2021/12/01 09:31:36;;;;;;;9.57;2.90;;;24.60;55.40;;;;;;5041864;28;20009;-78
2021/12/01 09:34:03;;;;;;;9.60;2.35;;;24.70;56.70;;;;;;5035873;28;20021;-76
2021/12/01 09:36:30;;;;;;;14.40;4.00;;;24.70;57.30;;;;;;5048690;28;20484;-80
2021/12/01 09:38:56;;;;;;;8.85;2.58;;;24.70;58.00;;;;;;5038330;28;20037;-79
2021/12/01 09:41:24;;;;;;;10.90;2.75;;;24.70;58.30;;;;;;5045965;28;20043;-78
2021/12/01 09:43:51;;;;;;;10.50;2.28;;;24.70;58.50;;;;;;5044811;28;20013;-80
2021/12/01 09:46:19;;;;;;;7.35;2.20;;;24.70;58.60;;;;;;5041833;28;20045;-75
2021/12/01 09:48:46;;;;;;;9.77;3.00;;;24.80;58.60;;;;;;5042952;28;20017;-78
2021/12/01 09:51:15;;;;;;;6.88;1.90;;;24.80;58.30;;;;;;5038171;28;20109;-79
2021/12/01 09:53:43;;;;;;;8.32;2.45;;;24.90;57.80;;;;;;5047692;28;20017;-79
2021/12/01 09:56:10;;;;;;;8.65;3.38;;;24.90;57.60;;;;;;5043694;28;20028;-79
2021/12/01 09:58:37;;;;;;;5.68;2.08;;;24.90;57.40;;;;;;5046270;28;20036;-79
2021/12/01 10:01:09;;;;;;;9.15;2.08;;;24.90;56.80;;;;;;5042277;28;20020;-77
2021/12/01 10:03:36;;;;;;;8.52;2.20;;;25.00;56.50;;;;;;5043291;28;20044;-80
2021/12/01 10:06:16;;;;;;;9.48;2.25;;;25.00;56.50;;;;;;5044968;28;20404;-80
2021/12/01 10:08:44;;;;;;;7.80;2.20;;;25.10;56.70;;;;;;5043749;28;20013;-78
2021/12/01 10:11:23;;;;;;;6.93;2.30;;;25.10;56.30;;;;;;5035479;28;20025;-79
2021/12/01 10:14:04;;;;;;;9.88;2.38;;;25.10;56.50;;;;;;5044961;28;20070;-79
2021/12/01 10:16:38;;;;;;;11.23;2.58;;;25.10;56.80;;;;;;5037209;28;20005;-75
2021/12/01 10:19:08;;;;;;;10.60;2.85;;;25.20;56.80;;;;;;5044603;28;20033;-79
2021/12/01 10:21:37;;;;;;;10.05;1.98;;;25.20;56.70;;;;;;5043958;28;20017;-78
2021/12/01 10:24:14;;;;;;;10.95;1.98;;;25.20;56.30;;;;;;5042394;28;20025;-79
2021/12/01 10:26:50;;;;;;;7.50;2.20;;;25.30;56.40;;;;;;5043179;28;20472;-80
2021/12/01 10:29:30;;;;;;;7.30;2.28;;;25.30;56.20;;;;;;5040062;28;20025;-80
2021/12/01 10:32:15;;;;;;;9.15;2.17;;;25.30;56.10;;;;;;5027871;28;20100;-80
2021/12/01 10:34:57;;;;;;;5.63;1.92;;;25.30;55.70;;;;;;5041198;28;20040;-79
2021/12/01 10:37:30;;;;;;;9.75;1.90;;;25.40;55.70;;;;;;5040540;28;20349;-80
2021/12/01 10:40:09;;;;;;;10.73;2.75;;;25.40;55.30;;;;;;5044123;28;20019;-80
2021/12/01 10:42:55;;;;;;;5.88;1.55;;;25.40;55.20;;;;;;5041269;28;20025;-77
2021/12/01 10:45:28;;;;;;;10.35;1.77;;;25.50;54.80;;;;;;5039786;28;20037;-80
2021/12/01 10:47:55;;;;;;;5.55;2.17;;;25.50;54.50;;;;;;5035526;28;20028;-79
2021/12/01 10:50:25;;;;;;;6.93;2.95;;;25.50;53.60;;;;;;5040741;28;20028;-79
2021/12/01 10:53:21;;;;;;;5.10;1.67;;;25.50;53.00;;;;;;5043722;28;20049;-79
2021/12/01 10:56:03;;;;;;;4.80;1.63;;;25.60;52.40;;;;;;5039248;28;20036;-74
2021/12/01 10:58:41;;;;;;;5.47;1.60;;;25.60;51.50;;;;;;5041463;28;20032;-77
2021/12/01 11:01:22;;;;;;;5.35;2.08;;;25.70;51.30;;;;;;5043123;28;20021;-73
2021/12/01 11:03:51;;;;;;;9.55;1.50;;;25.70;50.50;;;;;;5042377;28;20027;-79
2021/12/01 11:06:22;;;;;;;9.07;1.73;;;25.70;50.00;;;;;;5042348;28;20017;-76
2021/12/01 11:08:58;;;;;;;4.15;1.15;;;25.80;50.00;;;;;;5045052;28;20024;-78
2021/12/01 11:11:39;;;;;;;4.75;1.98;;;25.90;49.40;;;;;;5043096;28;20107;-77
2021/12/01 11:14:11;;;;;;;3.05;1.25;;;26.00;47.90;;;;;;5041917;28;20087;-75
2021/12/01 11:16:39;;;;;;;4.40;1.25;;;26.00;46.70;;;;;;5041498;28;20037;-73
2021/12/01 11:19:06;;;;;;;4.30;1.20;;;26.10;45.80;;;;;;5042083;28;20059;-73
2021/12/01 11:21:33;;;;;;;3.88;1.00;;;26.10;45.30;;;;;;5037144;28;20032;-75
2021/12/01 11:24:04;;;;;;;4.97;1.45;;;26.20;44.70;;;;;;5044272;28;20024;-74
2021/12/01 11:26:33;;;;;;;1.92;0.70;;;26.30;43.90;;;;;;5034142;28;20503;-77
2021/12/01 11:29:02;;;;;;;3.63;1.40;;;26.40;43.40;;;;;;5042459;28;20483;-73
2021/12/01 11:31:33;;;;;;;2.45;1.27;;;26.50;42.90;;;;;;5040815;28;20017;-80
2021/12/01 11:34:02;;;;;;;3.40;0.77;;;26.50;42.30;;;;;;5040053;28;20017;-74
2021/12/01 11:36:32;;;;;;;3.65;1.33;;;26.60;42.00;;;;;;5040033;28;20403;-79
2021/12/01 11:39:01;;;;;;;5.38;1.13;;;26.70;41.10;;;;;;5041585;28;20043;-77
2021/12/01 11:41:29;;;;;;;3.00;0.80;;;26.70;41.10;;;;;;5040622;28;20028;-78
2021/12/01 11:43:57;;;;;;;2.42;0.95;;;26.90;40.70;;;;;;5041476;28;20022;-80
2021/12/01 11:46:24;;;;;;;5.80;1.05;;;26.90;39.70;;;;;;5038845;28;20045;-80
2021/12/01 11:48:53;;;;;;;2.58;1.17;;;27.00;39.50;;;;;;5040131;28;20380;-79
2021/12/01 11:51:29;;;;;;;3.42;0.93;;;27.00;39.70;;;;;;5037428;28;20020;-81
2021/12/01 11:54:04;;;;;;;4.00;1.77;;;27.20;40.00;;;;;;5044634;28;20033;-80
2021/12/01 11:56:37;;;;;;;3.75;1.23;;;27.20;40.10;;;;;;5036645;28;20100;-81
2021/12/01 11:59:16;;;;;;;4.45;1.50;;;27.20;40.60;;;;;;5042963;28;20078;-80
2021/12/01 12:01:47;;;;;;;4.82;2.35;;;27.20;43.50;;;;;;5043414;28;20032;-83
2021/12/01 12:04:14;;;;;;;6.05;2.05;;;27.10;45.70;;;;;;5043993;28;20010;-83
2021/12/01 12:07:23;;;;;;;4.90;2.28;;;27.10;46.90;;;;;;5037442;28;20017;-79
2021/12/01 12:10:20;;;;;;;8.88;2.42;;;27.00;48.30;;;;;;4966332;28;20027;-85
2021/12/01 12:13:07;;;;;;;6.95;2.25;;;26.80;49.30;;;;;;5039572;28;20017;-83
2021/12/01 12:15:50;;;;;;;5.45;2.50;;;26.70;50.00;;;;;;5040284;28;20098;-83
2021/12/01 12:18:35;;;;;;;6.68;1.90;;;26.60;50.60;;;;;;5039300;28;20044;-81
2021/12/01 12:21:38;;;;;;;3.55;1.90;;;26.60;51.00;;;;;;5044188;28;20554;-83
2021/12/01 12:24:17;;;;;;;9.57;2.45;;;26.60;51.40;;;;;;5038523;28;20065;-78
2021/12/01 12:26:47;;;;;;;8.25;1.95;;;26.50;51.90;;;;;;5041534;28;20039;-85
2021/12/01 12:29:22;;;;;;;8.68;2.33;;;26.40;52.10;;;;;;5043622;28;20527;-81
2021/12/01 12:31:50;;;;;;;10.35;2.97;;;26.40;52.50;;;;;;5037446;28;20494;-78
2021/12/01 12:34:23;;;;;;;11.93;2.00;;;26.30;52.70;;;;;;5042614;28;20024;-87
2021/12/01 12:36:58;;;;;;;7.28;1.77;;;26.30;53.30;;;;;;5042919;28;20029;-84
2021/12/01 12:39:28;;;;;;;7.95;1.63;;;26.30;53.30;;;;;;5039547;28;20072;-88
2021/12/01 12:41:55;;;;;;;6.72;1.63;;;26.20;53.40;;;;;;5046103;28;20024;-86
2021/12/01 12:44:30;;;;;;;4.18;1.20;;;26.30;53.50;;;;;;5023505;28;20436;-87
2021/12/01 12:47:24;;;;;;;10.85;3.35;;;26.30;53.60;;;;;;5042960;28;20018;-79
2021/12/01 12:49:52;;;;;;;6.75;1.58;;;26.40;53.70;;;;;;5039702;28;20025;-88
2021/12/01 12:52:27;;;;;;;4.03;1.88;;;26.50;53.50;;;;;;5042366;28;20442;-77
2021/12/01 12:54:58;;;;;;;6.72;1.50;;;26.50;53.50;;;;;;5040335;28;20021;-86
2021/12/01 12:57:45;;;;;;;9.43;1.95;;;26.50;53.30;;;;;;5047138;28;20059;-85
2021/12/01 13:00:32;;;;;;;8.73;1.65;;;26.60;53.00;;;;;;5036377;28;20384;-86